Terminal Aerodrome Forecast
Issued by NWS

Home | Current Version | Previous Version | Text Only | Print | Product List | Glossary On
Versions: 1 2 3 4 5 6 7 8 9 10 11 12 13 14 15 16 17 18 19 20 21
000
FTUS43 KDLH 160500
TAFHIB
TAF
KHIB 160524Z 1606/1706 35016G24KT P6SM OVC010
     FM160800 34012G19KT P6SM SCT012 BKN028
     FM161600 33010KT 5SM -SN BKN018 OVC030
     FM162300 33009KT P6SM BKN022=

USA.gov is the U.S. government's official web portal to all federal, state and local government web resources and services.